sensor_id;sensor_type;location;lat;lon;timestamp;pressure;altitude;pressure_sealevel;temperature;humidity
58662;BME280;44432;49.786;22.760;2023-01-19T00:00:35;98038.98;;;1.76;81.69
58662;BME280;44432;49.786;22.760;2023-01-19T00:03:26;98046.90;;;1.77;81.86
58662;BME280;44432;49.786;22.760;2023-01-19T00:05:57;98047.58;;;1.77;81.63
58662;BME280;44432;49.786;22.760;2023-01-19T00:08:28;98045.96;;;1.76;81.68
58662;BME280;44432;49.786;22.760;2023-01-19T00:10:58;98047.40;;;1.75;81.82
58662;BME280;44432;49.786;22.760;2023-01-19T00:13:29;98054.31;;;1.77;81.79
58662;BME280;44432;49.786;22.760;2023-01-19T00:16:00;98056.27;;;1.81;81.98
58662;BME280;44432;49.786;22.760;2023-01-19T00:18:31;98056.66;;;1.85;82.37
58662;BME280;44432;49.786;22.760;2023-01-19T00:21:02;98058.57;;;1.88;82.09
58662;BME280;44432;49.786;22.760;2023-01-19T00:23:32;98056.36;;;1.90;81.93
58662;BME280;44432;49.786;22.760;2023-01-19T00:26:03;98056.91;;;1.90;81.86
58662;BME280;44432;49.786;22.760;2023-01-19T00:28:34;98062.76;;;1.90;82.07
58662;BME280;44432;49.786;22.760;2023-01-19T00:31:04;98067.55;;;1.92;82.38
58662;BME280;44432;49.786;22.760;2023-01-19T00:33:35;98076.86;;;1.97;82.38
58662;BME280;44432;49.786;22.760;2023-01-19T00:36:07;98077.54;;;2.00;82.33
58662;BME280;44432;49.786;22.760;2023-01-19T00:38:38;98077.09;;;2.04;82.27
58662;BME280;44432;49.786;22.760;2023-01-19T00:41:09;98074.88;;;2.08;82.35
58662;BME280;44432;49.786;22.760;2023-01-19T00:43:40;98076.05;;;2.09;82.25
58662;BME280;44432;49.786;22.760;2023-01-19T00:46:11;98078.39;;;2.08;82.09
58662;BME280;44432;49.786;22.760;2023-01-19T00:48:41;98089.34;;;2.07;82.04
58662;BME280;44432;49.786;22.760;2023-01-19T00:51:13;98093.21;;;2.08;82.31
58662;BME280;44432;49.786;22.760;2023-01-19T00:53:44;98102.70;;;2.10;82.34
58662;BME280;44432;49.786;22.760;2023-01-19T00:56:14;98109.02;;;2.12;82.27
58662;BME280;44432;49.786;22.760;2023-01-19T00:58:45;98108.38;;;2.13;82.36
58662;BME280;44432;49.786;22.760;2023-01-19T01:01:16;98110.06;;;2.13;82.03
58662;BME280;44432;49.786;22.760;2023-01-19T01:03:47;98106.42;;;2.14;82.23
58662;BME280;44432;49.786;22.760;2023-01-19T01:06:18;98108.58;;;2.13;82.16
58662;BME280;44432;49.786;22.760;2023-01-19T01:08:49;98111.17;;;2.13;81.80
58662;BME280;44432;49.786;22.760;2023-01-19T01:11:20;98113.81;;;2.11;82.02
58662;BME280;44432;49.786;22.760;2023-01-19T01:13:51;98113.55;;;2.09;81.75
58662;BME280;44432;49.786;22.760;2023-01-19T01:16:22;98113.11;;;2.08;81.94
58662;BME280;44432;49.786;22.760;2023-01-19T01:18:53;98118.63;;;2.11;82.02
58662;BME280;44432;49.786;22.760;2023-01-19T01:21:24;98114.27;;;2.13;81.96
58662;BME280;44432;49.786;22.760;2023-01-19T01:23:55;98107.83;;;2.14;82.16
58662;BME280;44432;49.786;22.760;2023-01-19T01:26:25;98119.09;;;2.16;82.17
58662;BME280;44432;49.786;22.760;2023-01-19T01:28:56;98129.13;;;2.17;81.99
58662;BME280;44432;49.786;22.760;2023-01-19T01:31:27;98134.27;;;2.19;82.18
58662;BME280;44432;49.786;22.760;2023-01-19T01:33:58;98132.89;;;2.21;82.32
58662;BME280;44432;49.786;22.760;2023-01-19T01:36:29;98128.27;;;2.20;81.93
58662;BME280;44432;49.786;22.760;2023-01-19T01:39:01;98136.66;;;2.21;82.00
58662;BME280;44432;49.786;22.760;2023-01-19T01:41:32;98140.65;;;2.24;82.09
58662;BME280;44432;49.786;22.760;2023-01-19T01:44:40;98144.61;;;2.28;82.30
58662;BME280;44432;49.786;22.760;2023-01-19T01:46:53;98145.59;;;2.35;82.65
58662;BME280;44432;49.786;22.760;2023-01-19T01:49:24;98147.28;;;2.41;82.57
58662;BME280;44432;49.786;22.760;2023-01-19T01:51:55;98148.36;;;2.46;82.48
58662;BME280;44432;49.786;22.760;2023-01-19T01:54:28;98153.69;;;2.51;82.18
58662;BME280;44432;49.786;22.760;2023-01-19T01:57:03;98153.60;;;2.54;82.77
58662;BME280;44432;49.786;22.760;2023-01-19T01:59:39;98154.11;;;2.58;82.71
58662;BME280;44432;49.786;22.760;2023-01-19T02:02:13;98145.84;;;2.62;82.31
58662;BME280;44432;49.786;22.760;2023-01-19T02:05:14;98137.44;;;2.64;82.59
58662;BME280;44432;49.786;22.760;2023-01-19T02:07:50;98131.74;;;2.64;82.51
58662;BME280;44432;49.786;22.760;2023-01-19T02:10:41;98128.27;;;2.65;82.67
58662;BME280;44432;49.786;22.760;2023-01-19T02:13:32;98124.86;;;2.65;82.64
58662;BME280;44432;49.786;22.760;2023-01-19T02:16:08;98121.39;;;2.62;82.27
58662;BME280;44432;49.786;22.760;2023-01-19T02:18:41;98116.55;;;2.57;82.44
58662;BME280;44432;49.786;22.760;2023-01-19T02:21:18;98114.70;;;2.52;82.28
58662;BME280;44432;49.786;22.760;2023-01-19T02:23:51;98111.75;;;2.49;82.32
58662;BME280;44432;49.786;22.760;2023-01-19T02:26:26;98110.02;;;2.43;82.15
58662;BME280;44432;49.786;22.760;2023-01-19T02:28:59;98112.38;;;2.36;82.51
58662;BME280;44432;49.786;22.760;2023-01-19T02:31:31;98116.58;;;2.31;82.62
58662;BME280;44432;49.786;22.760;2023-01-19T02:34:04;98114.36;;;2.27;83.03
58662;BME280;44432;49.786;22.760;2023-01-19T02:36:39;98120.31;;;2.26;83.14
58662;BME280;44432;49.786;22.760;2023-01-19T02:39:12;98128.02;;;2.24;83.37
58662;BME280;44432;49.786;22.760;2023-01-19T02:41:43;98128.05;;;2.22;83.63
58662;BME280;44432;49.786;22.760;2023-01-19T02:44:16;98127.12;;;2.21;83.72
58662;BME280;44432;49.786;22.760;2023-01-19T02:46:49;98122.81;;;2.18;83.84
58662;BME280;44432;49.786;22.760;2023-01-19T02:49:21;98126.83;;;2.17;83.65
58662;BME280;44432;49.786;22.760;2023-01-19T02:51:51;98125.39;;;2.13;83.94
58662;BME280;44432;49.786;22.760;2023-01-19T02:54:40;98119.48;;;2.10;84.22
58662;BME280;44432;49.786;22.760;2023-01-19T02:57:23;98113.39;;;2.06;83.96
58662;BME280;44432;49.786;22.760;2023-01-19T03:00:10;98108.86;;;2.01;84.09
58662;BME280;44432;49.786;22.760;2023-01-19T03:02:55;98102.36;;;1.94;84.16
58662;BME280;44432;49.786;22.760;2023-01-19T03:05:32;98105.55;;;1.89;84.13
58662;BME280;44432;49.786;22.760;2023-01-19T03:08:10;98101.37;;;1.83;84.43
58662;BME280;44432;49.786;22.760;2023-01-19T03:10:50;98091.52;;;1.79;84.56
58662;BME280;44432;49.786;22.760;2023-01-19T03:13:28;98085.62;;;1.74;84.48
58662;BME280;44432;49.786;22.760;2023-01-19T03:16:06;98084.60;;;1.68;85.03
58662;BME280;44432;49.786;22.760;2023-01-19T03:18:41;98089.38;;;1.68;84.84
58662;BME280;44432;49.786;22.760;2023-01-19T03:21:14;98086.30;;;1.70;85.85
58662;BME280;44432;49.786;22.760;2023-01-19T03:23:48;98081.19;;;1.71;85.79
58662;BME280;44432;49.786;22.760;2023-01-19T03:26:24;98071.61;;;1.73;85.91
58662;BME280;44432;49.786;22.760;2023-01-19T03:28:56;98059.88;;;1.74;86.25
58662;BME280;44432;49.786;22.760;2023-01-19T03:31:32;98051.73;;;1.74;86.26
58662;BME280;44432;49.786;22.760;2023-01-19T03:34:05;98050.46;;;1.76;86.45
58662;BME280;44432;49.786;22.760;2023-01-19T03:36:41;98050.47;;;1.77;86.38
58662;BME280;44432;49.786;22.760;2023-01-19T03:39:16;98047.51;;;1.77;86.48
58662;BME280;44432;49.786;22.760;2023-01-19T03:41:51;98045.06;;;1.77;86.61
58662;BME280;44432;49.786;22.760;2023-01-19T03:44:24;98045.55;;;1.78;86.45
58662;BME280;44432;49.786;22.760;2023-01-19T03:46:56;98039.66;;;1.78;86.70
58662;BME280;44432;49.786;22.760;2023-01-19T03:49:30;98044.06;;;1.77;86.66
58662;BME280;44432;49.786;22.760;2023-01-19T03:52:02;98051.62;;;1.76;86.70
58662;BME280;44432;49.786;22.760;2023-01-19T03:54:33;98053.80;;;1.76;86.67
58662;BME280;44432;49.786;22.760;2023-01-19T03:57:04;98049.17;;;1.75;86.97
58662;BME280;44432;49.786;22.760;2023-01-19T04:01:35;98050.60;;;1.75;86.76
58662;BME280;44432;49.786;22.760;2023-01-19T04:04:06;98060.96;;;1.70;86.76
58662;BME280;44432;49.786;22.760;2023-01-19T04:06:36;98067.77;;;1.68;86.92
58662;BME280;44432;49.786;22.760;2023-01-19T04:09:07;98072.17;;;1.66;86.87
58662;BME280;44432;49.786;22.760;2023-01-19T04:11:38;98073.02;;;1.63;86.92
58662;BME280;44432;49.786;22.760;2023-01-19T04:14:09;98070.18;;;1.63;86.99
58662;BME280;44432;49.786;22.760;2023-01-19T04:16:40;98067.80;;;1.61;86.92
58662;BME280;44432;49.786;22.760;2023-01-19T04:19:10;98069.83;;;1.59;86.78
58662;BME280;44432;49.786;22.760;2023-01-19T04:21:41;98057.47;;;1.57;86.61
58662;BME280;44432;49.786;22.760;2023-01-19T04:24:12;98056.14;;;1.52;86.69
58662;BME280;44432;49.786;22.760;2023-01-19T04:26:43;98054.27;;;1.49;86.88
58662;BME280;44432;49.786;22.760;2023-01-19T04:29:14;98041.43;;;1.46;87.09
58662;BME280;44432;49.786;22.760;2023-01-19T04:31:44;98034.55;;;1.43;87.10
58662;BME280;44432;49.786;22.760;2023-01-19T04:34:16;98036.35;;;1.38;86.92
58662;BME280;44432;49.786;22.760;2023-01-19T04:36:46;98045.35;;;1.34;86.92
58662;BME280;44432;49.786;22.760;2023-01-19T04:39:19;98048.85;;;1.27;86.82
58662;BME280;44432;49.786;22.760;2023-01-19T04:41:51;98049.11;;;1.23;86.71
58662;BME280;44432;49.786;22.760;2023-01-19T04:44:22;98052.48;;;1.20;87.10
58662;BME280;44432;49.786;22.760;2023-01-19T04:46:53;98057.83;;;1.19;87.12
58662;BME280;44432;49.786;22.760;2023-01-19T04:49:24;98055.21;;;1.18;87.20
58662;BME280;44432;49.786;22.760;2023-01-19T04:51:55;98050.96;;;1.17;87.23
58662;BME280;44432;49.786;22.760;2023-01-19T04:54:26;98054.53;;;1.15;87.18
58662;BME280;44432;49.786;22.760;2023-01-19T04:56:56;98064.25;;;1.12;87.16
58662;BME280;44432;49.786;22.760;2023-01-19T04:59:28;98083.95;;;1.09;87.56
58662;BME280;44432;49.786;22.760;2023-01-19T05:01:58;98100.66;;;1.10;87.39
58662;BME280;44432;49.786;22.760;2023-01-19T05:04:29;98108.64;;;1.09;87.59
58662;BME280;44432;49.786;22.760;2023-01-19T05:07:00;98117.56;;;1.07;87.34
58662;BME280;44432;49.786;22.760;2023-01-19T05:09:30;98123.94;;;1.04;87.29
58662;BME280;44432;49.786;22.760;2023-01-19T05:12:01;98123.13;;;1.01;87.45
58662;BME280;44432;49.786;22.760;2023-01-19T05:14:32;98130.56;;;0.98;87.26
58662;BME280;44432;49.786;22.760;2023-01-19T05:17:02;98129.84;;;0.95;87.40
58662;BME280;44432;49.786;22.760;2023-01-19T05:19:33;98120.26;;;0.93;87.57
58662;BME280;44432;49.786;22.760;2023-01-19T05:22:04;98100.69;;;0.91;87.47
58662;BME280;44432;49.786;22.760;2023-01-19T05:24:35;98086.20;;;0.90;87.82
58662;BME280;44432;49.786;22.760;2023-01-19T05:27:06;98082.00;;;0.92;87.95
58662;BME280;44432;49.786;22.760;2023-01-19T05:29:37;98071.23;;;0.91;87.78
58662;BME280;44432;49.786;22.760;2023-01-19T05:32:07;98065.82;;;0.90;87.77
58662;BME280;44432;49.786;22.760;2023-01-19T05:34:38;98059.16;;;0.88;87.42
58662;BME280;44432;49.786;22.760;2023-01-19T05:37:09;98048.14;;;0.86;87.76
58662;BME280;44432;49.786;22.760;2023-01-19T05:39:40;98033.39;;;0.86;87.90
58662;BME280;44432;49.786;22.760;2023-01-19T05:42:11;98017.68;;;0.86;87.90
58662;BME280;44432;49.786;22.760;2023-01-19T05:44:42;98003.25;;;0.83;87.61
58662;BME280;44432;49.786;22.760;2023-01-19T05:47:13;98020.98;;;0.81;87.72
58662;BME280;44432;49.786;22.760;2023-01-19T05:49:44;98027.42;;;0.79;87.85
58662;BME280;44432;49.786;22.760;2023-01-19T05:52:15;98030.82;;;0.79;87.96
58662;BME280;44432;49.786;22.760;2023-01-19T05:54:46;98034.45;;;0.79;88.11
58662;BME280;44432;49.786;22.760;2023-01-19T05:57:17;98040.45;;;0.79;88.13
58662;BME280;44432;49.786;22.760;2023-01-19T05:59:48;98047.21;;;0.76;88.02
58662;BME280;44432;49.786;22.760;2023-01-19T06:02:19;98060.33;;;0.77;88.09
58662;BME280;44432;49.786;22.760;2023-01-19T06:04:51;98059.62;;;0.78;88.22
58662;BME280;44432;49.786;22.760;2023-01-19T06:07:22;98059.61;;;0.80;88.29
58662;BME280;44432;49.786;22.760;2023-01-19T06:09:54;98059.87;;;0.82;88.56
58662;BME280;44432;49.786;22.760;2023-01-19T06:12:25;98061.21;;;0.84;88.52
58662;BME280;44432;49.786;22.760;2023-01-19T06:14:55;98075.30;;;0.87;88.50
58662;BME280;44432;49.786;22.760;2023-01-19T06:17:26;98072.80;;;0.90;88.61
58662;BME280;44432;49.786;22.760;2023-01-19T06:19:57;98070.30;;;0.87;88.26
58662;BME280;44432;49.786;22.760;2023-01-19T06:22:27;98065.67;;;0.85;88.20
58662;BME280;44432;49.786;22.760;2023-01-19T06:24:58;98071.89;;;0.87;88.48
58662;BME280;44432;49.786;22.760;2023-01-19T06:27:29;98078.17;;;0.89;88.67
58662;BME280;44432;49.786;22.760;2023-01-19T06:30:00;98081.95;;;0.91;88.78
58662;BME280;44432;49.786;22.760;2023-01-19T06:32:31;98088.36;;;0.93;88.62
58662;BME280;44432;49.786;22.760;2023-01-19T06:35:01;98099.01;;;0.94;88.68
58662;BME280;44432;49.786;22.760;2023-01-19T06:37:32;98101.69;;;0.94;88.65
58662;BME280;44432;49.786;22.760;2023-01-19T06:40:03;98104.86;;;0.95;88.61
58662;BME280;44432;49.786;22.760;2023-01-19T06:42:34;98092.14;;;0.95;88.33
58662;BME280;44432;49.786;22.760;2023-01-19T06:45:06;98079.04;;;0.92;88.40
58662;BME280;44432;49.786;22.760;2023-01-19T06:47:36;98076.67;;;0.92;88.41
58662;BME280;44432;49.786;22.760;2023-01-19T06:50:09;98074.51;;;0.91;88.69
58662;BME280;44432;49.786;22.760;2023-01-19T06:52:40;98071.06;;;0.94;88.68
58662;BME280;44432;49.786;22.760;2023-01-19T06:55:11;98062.72;;;0.94;88.49
58662;BME280;44432;49.786;22.760;2023-01-19T06:57:43;98054.58;;;0.96;88.49
58662;BME280;44432;49.786;22.760;2023-01-19T07:00:15;98052.28;;;0.97;88.74
58662;BME280;44432;49.786;22.760;2023-01-19T07:02:46;98052.02;;;1.00;88.52
58662;BME280;44432;49.786;22.760;2023-01-19T07:05:16;98061.75;;;1.01;88.73
58662;BME280;44432;49.786;22.760;2023-01-19T07:07:51;98073.01;;;1.04;88.59
58662;BME280;44432;49.786;22.760;2023-01-19T07:10:23;98069.73;;;1.05;88.65
58662;BME280;44432;49.786;22.760;2023-01-19T07:12:53;98063.70;;;1.07;88.58
58662;BME280;44432;49.786;22.760;2023-01-19T07:15:26;98065.93;;;1.08;88.54
58662;BME280;44432;49.786;22.760;2023-01-19T07:17:59;98065.39;;;1.10;88.65
58662;BME280;44432;49.786;22.760;2023-01-19T07:20:34;98067.80;;;1.10;88.41
58662;BME280;44432;49.786;22.760;2023-01-19T07:23:04;98067.95;;;1.10;88.35
58662;BME280;44432;49.786;22.760;2023-01-19T07:25:35;98074.12;;;1.11;88.48
58662;BME280;44432;49.786;22.760;2023-01-19T07:28:06;98072.41;;;1.12;88.43
58662;BME280;44432;49.786;22.760;2023-01-19T07:30:37;98064.69;;;1.11;88.29
58662;BME280;44432;49.786;22.760;2023-01-19T07:33:08;98062.38;;;1.12;88.60
58662;BME280;44432;49.786;22.760;2023-01-19T07:35:39;98068.45;;;1.11;88.31
58662;BME280;44432;49.786;22.760;2023-01-19T07:38:09;98074.81;;;1.09;88.15
58662;BME280;44432;49.786;22.760;2023-01-19T07:40:40;98078.08;;;1.08;88.28
58662;BME280;44432;49.786;22.760;2023-01-19T07:43:11;98082.83;;;1.07;88.33
58662;BME280;44432;49.786;22.760;2023-01-19T07:45:43;98088.05;;;1.06;88.28
58662;BME280;44432;49.786;22.760;2023-01-19T07:48:14;98092.48;;;1.03;88.28
58662;BME280;44432;49.786;22.760;2023-01-19T07:50:45;98084.62;;;1.04;88.55
58662;BME280;44432;49.786;22.760;2023-01-19T07:53:15;98086.48;;;1.07;88.90
58662;BME280;44432;49.786;22.760;2023-01-19T07:55:46;98085.95;;;1.10;88.71
58662;BME280;44432;49.786;22.760;2023-01-19T07:58:23;98083.23;;;1.14;88.79
58662;BME280;44432;49.786;22.760;2023-01-19T08:00:54;98076.77;;;1.17;88.79
58662;BME280;44432;49.786;22.760;2023-01-19T08:03:25;98073.26;;;1.19;88.71
58662;BME280;44432;49.786;22.760;2023-01-19T08:05:56;98061.11;;;1.19;88.40
58662;BME280;44432;49.786;22.760;2023-01-19T08:08:29;98056.26;;;1.22;88.49
58662;BME280;44432;49.786;22.760;2023-01-19T08:11:00;98050.02;;;1.25;88.71
58662;BME280;44432;49.786;22.760;2023-01-19T08:13:31;98052.80;;;1.26;88.50
58662;BME280;44432;49.786;22.760;2023-01-19T08:16:02;98050.62;;;1.28;88.21
58662;BME280;44432;49.786;22.760;2023-01-19T08:18:33;98043.65;;;1.32;88.77
58662;BME280;44432;49.786;22.760;2023-01-19T08:21:07;98045.08;;;1.35;88.89
58662;BME280;44432;49.786;22.760;2023-01-19T08:23:38;98044.85;;;1.36;88.18
58662;BME280;44432;49.786;22.760;2023-01-19T08:26:19;98038.23;;;1.38;88.38
58662;BME280;44432;49.786;22.760;2023-01-19T08:28:52;98030.70;;;1.42;88.33
58662;BME280;44432;49.786;22.760;2023-01-19T08:31:24;98037.61;;;1.43;88.38
58662;BME280;44432;49.786;22.760;2023-01-19T08:33:55;98043.76;;;1.46;88.34
58662;BME280;44432;49.786;22.760;2023-01-19T08:36:26;98040.75;;;1.49;88.41
58662;BME280;44432;49.786;22.760;2023-01-19T08:38:57;98036.50;;;1.52;88.42
58662;BME280;44432;49.786;22.760;2023-01-19T08:41:28;98036.20;;;1.55;88.09
58662;BME280;44432;49.786;22.760;2023-01-19T08:43:59;98037.21;;;1.56;88.01
58662;BME280;44432;49.786;22.760;2023-01-19T08:46:30;98040.98;;;1.57;88.18
58662;BME280;44432;49.786;22.760;2023-01-19T08:49:00;98044.59;;;1.57;87.91
58662;BME280;44432;49.786;22.760;2023-01-19T08:51:31;98044.08;;;1.57;88.07
58662;BME280;44432;49.786;22.760;2023-01-19T08:54:03;98035.67;;;1.58;87.96
58662;BME280;44432;49.786;22.760;2023-01-19T08:56:34;98039.06;;;1.60;88.16
58662;BME280;44432;49.786;22.760;2023-01-19T08:59:05;98030.00;;;1.63;88.17
58662;BME280;44432;49.786;22.760;2023-01-19T09:01:36;98032.95;;;1.66;87.89
58662;BME280;44432;49.786;22.760;2023-01-19T09:04:07;98029.91;;;1.67;87.60
58662;BME280;44432;49.786;22.760;2023-01-19T09:06:38;98035.44;;;1.62;87.29
58662;BME280;44432;49.786;22.760;2023-01-19T09:09:09;98034.75;;;1.61;87.68
58662;BME280;44432;49.786;22.760;2023-01-19T09:11:40;98027.36;;;1.59;87.74
58662;BME280;44432;49.786;22.760;2023-01-19T09:14:11;98022.52;;;1.62;87.79
58662;BME280;44432;49.786;22.760;2023-01-19T09:16:42;98014.13;;;1.63;87.87
58662;BME280;44432;49.786;22.760;2023-01-19T09:19:13;98010.88;;;1.59;87.63
58662;BME280;44432;49.786;22.760;2023-01-19T09:21:44;98006.86;;;1.62;87.56
58662;BME280;44432;49.786;22.760;2023-01-19T09:24:15;98001.86;;;1.62;87.82
58662;BME280;44432;49.786;22.760;2023-01-19T09:26:45;97992.41;;;1.61;87.90
58662;BME280;44432;49.786;22.760;2023-01-19T09:29:17;97986.07;;;1.55;87.78
58662;BME280;44432;49.786;22.760;2023-01-19T09:31:47;97998.02;;;1.58;87.72
58662;BME280;44432;49.786;22.760;2023-01-19T09:34:18;98000.98;;;1.55;87.54
58662;BME280;44432;49.786;22.760;2023-01-19T09:36:51;98002.45;;;1.53;87.41
58662;BME280;44432;49.786;22.760;2023-01-19T09:39:22;97996.29;;;1.52;87.80
58662;BME280;44432;49.786;22.760;2023-01-19T09:41:58;97983.45;;;1.54;87.94
58662;BME280;44432;49.786;22.760;2023-01-19T09:44:33;97971.87;;;1.56;87.60
58662;BME280;44432;49.786;22.760;2023-01-19T09:47:14;97981.16;;;1.57;87.63
58662;BME280;44432;49.786;22.760;2023-01-19T09:49:51;97987.88;;;1.56;87.70
58662;BME280;44432;49.786;22.760;2023-01-19T09:52:23;97971.30;;;1.50;87.25
58662;BME280;44432;49.786;22.760;2023-01-19T09:54:55;97971.29;;;1.44;87.50
58662;BME280;44432;49.786;22.760;2023-01-19T09:57:28;97968.23;;;1.43;87.45
58662;BME280;44432;49.786;22.760;2023-01-19T09:59:59;97963.52;;;1.38;87.24
58662;BME280;44432;49.786;22.760;2023-01-19T10:02:36;97961.58;;;1.33;87.59
58662;BME280;44432;49.786;22.760;2023-01-19T10:05:22;97959.23;;;1.29;87.92
58662;BME280;44432;49.786;22.760;2023-01-19T10:08:08;97964.83;;;1.30;88.18
58662;BME280;44432;49.786;22.760;2023-01-19T10:10:44;97966.11;;;1.31;87.85
58662;BME280;44432;49.786;22.760;2023-01-19T10:13:27;97966.20;;;1.30;88.09
58662;BME280;44432;49.786;22.760;2023-01-19T10:16:06;97961.83;;;1.34;88.29
58662;BME280;44432;49.786;22.760;2023-01-19T10:18:43;97953.84;;;1.35;88.19
58662;BME280;44432;49.786;22.760;2023-01-19T10:21:19;97955.05;;;1.37;88.30
58662;BME280;44432;49.786;22.760;2023-01-19T10:23:52;97939.17;;;1.37;88.00
58662;BME280;44432;49.786;22.760;2023-01-19T10:26:28;97921.66;;;1.38;88.13
58662;BME280;44432;49.786;22.760;2023-01-19T10:29:06;97918.96;;;1.36;87.91
58662;BME280;44432;49.786;22.760;2023-01-19T10:31:38;97920.43;;;1.35;88.20
58662;BME280;44432;49.786;22.760;2023-01-19T10:34:09;97925.48;;;1.35;87.93
58662;BME280;44432;49.786;22.760;2023-01-19T10:36:44;97927.48;;;1.31;88.04
58662;BME280;44432;49.786;22.760;2023-01-19T10:39:17;97942.08;;;1.30;88.16
58662;BME280;44432;49.786;22.760;2023-01-19T10:41:50;97948.23;;;1.31;88.19
58662;BME280;44432;49.786;22.760;2023-01-19T10:44:23;97954.98;;;1.34;88.43
58662;BME280;44432;49.786;22.760;2023-01-19T10:46:56;97955.36;;;1.31;88.28
58662;BME280;44432;49.786;22.760;2023-01-19T10:49:29;97954.27;;;1.27;88.11
58662;BME280;44432;49.786;22.760;2023-01-19T10:52:07;97944.55;;;1.26;88.44
58662;BME280;44432;49.786;22.760;2023-01-19T10:54:47;97943.49;;;1.20;88.01
58662;BME280;44432;49.786;22.760;2023-01-19T10:57:26;97943.79;;;1.16;88.39
58662;BME280;44432;49.786;22.760;2023-01-19T10:59:59;97946.09;;;1.16;88.66
58662;BME280;44432;49.786;22.760;2023-01-19T11:02:30;97952.83;;;1.16;88.74
58662;BME280;44432;49.786;22.760;2023-01-19T11:07:50;97952.21;;;1.24;88.82
58662;BME280;44432;49.786;22.760;2023-01-19T11:10:23;97943.56;;;1.27;88.74
58662;BME280;44432;49.786;22.760;2023-01-19T11:13:00;97933.73;;;1.32;88.81
58662;BME280;44432;49.786;22.760;2023-01-19T11:15:34;97932.89;;;1.36;88.95
58662;BME280;44432;49.786;22.760;2023-01-19T11:18:23;97922.98;;;1.39;88.90
58662;BME280;44432;49.786;22.760;2023-01-19T11:20:58;97922.45;;;1.42;88.52
58662;BME280;44432;49.786;22.760;2023-01-19T11:23:32;97925.34;;;1.43;88.19
58662;BME280;44432;49.786;22.760;2023-01-19T11:26:06;97927.13;;;1.41;88.08
58662;BME280;44432;49.786;22.760;2023-01-19T11:28:40;97918.15;;;1.39;87.89
58662;BME280;44432;49.786;22.760;2023-01-19T11:31:20;97910.70;;;1.35;88.39
58662;BME280;44432;49.786;22.760;2023-01-19T11:34:01;97903.45;;;1.27;87.87
58662;BME280;44432;49.786;22.760;2023-01-19T11:36:35;97900.42;;;1.24;88.09
58662;BME280;44432;49.786;22.760;2023-01-19T11:39:24;97897.65;;;1.24;88.41
58662;BME280;44432;49.786;22.760;2023-01-19T11:41:57;97884.11;;;1.24;88.56
58662;BME280;44432;49.786;22.760;2023-01-19T11:44:31;97878.63;;;1.23;88.45
58662;BME280;44432;49.786;22.760;2023-01-19T11:47:01;97876.02;;;1.28;88.77
58662;BME280;44432;49.786;22.760;2023-01-19T11:49:41;97873.54;;;1.32;88.55
58662;BME280;44432;49.786;22.760;2023-01-19T11:52:22;97881.20;;;1.37;88.70
58662;BME280;44432;49.786;22.760;2023-01-19T11:54:59;97887.42;;;1.38;88.58
58662;BME280;44432;49.786;22.760;2023-01-19T11:57:31;97889.13;;;1.41;88.94
58662;BME280;44432;49.786;22.760;2023-01-19T12:00:22;97896.13;;;1.42;88.55
58662;BME280;44432;49.786;22.760;2023-01-19T12:02:57;97903.17;;;1.41;88.35
58662;BME280;44432;49.786;22.760;2023-01-19T12:05:32;97899.64;;;1.39;88.59
58662;BME280;44432;49.786;22.760;2023-01-19T12:08:06;97887.13;;;1.36;88.54
58662;BME280;44432;49.786;22.760;2023-01-19T12:10:45;97889.20;;;1.36;88.49
58662;BME280;44432;49.786;22.760;2023-01-19T12:13:21;97891.23;;;1.35;88.71
58662;BME280;44432;49.786;22.760;2023-01-19T12:15:56;97887.91;;;1.34;89.11
58662;BME280;44432;49.786;22.760;2023-01-19T12:18:34;97888.30;;;1.32;88.46
58662;BME280;44432;49.786;22.760;2023-01-19T12:21:08;97892.78;;;1.34;89.12
58662;BME280;44432;49.786;22.760;2023-01-19T12:23:45;97889.67;;;1.34;89.07
58662;BME280;44432;49.786;22.760;2023-01-19T12:26:27;97885.56;;;1.32;88.78
58662;BME280;44432;49.786;22.760;2023-01-19T12:28:59;97876.80;;;1.30;88.76
58662;BME280;44432;49.786;22.760;2023-01-19T12:31:33;97869.08;;;1.26;88.60
58662;BME280;44432;49.786;22.760;2023-01-19T12:34:37;97881.67;;;1.25;89.12
58662;BME280;44432;49.786;22.760;2023-01-19T12:37:30;97886.71;;;1.24;89.10
58662;BME280;44432;49.786;22.760;2023-01-19T12:40:12;97884.33;;;1.22;89.03
58662;BME280;44432;49.786;22.760;2023-01-19T12:42:54;97877.89;;;1.22;89.28
58662;BME280;44432;49.786;22.760;2023-01-19T12:45:30;97886.30;;;1.23;89.28
58662;BME280;44432;49.786;22.760;2023-01-19T12:48:02;97890.26;;;1.23;89.27
58662;BME280;44432;49.786;22.760;2023-01-19T12:50:36;97890.83;;;1.24;89.31
58662;BME280;44432;49.786;22.760;2023-01-19T12:53:17;97889.77;;;1.23;89.33
58662;BME280;44432;49.786;22.760;2023-01-19T12:55:58;97892.65;;;1.23;89.30
58662;BME280;44432;49.786;22.760;2023-01-19T12:58:30;97895.64;;;1.26;89.30
58662;BME280;44432;49.786;22.760;2023-01-19T13:01:16;97897.09;;;1.27;89.11
58662;BME280;44432;49.786;22.760;2023-01-19T13:04:04;97899.50;;;1.28;89.50
58662;BME280;44432;49.786;22.760;2023-01-19T13:07:08;97911.05;;;1.32;89.44
58662;BME280;44432;49.786;22.760;2023-01-19T13:09:42;97932.20;;;1.30;89.26
58662;BME280;44432;49.786;22.760;2023-01-19T13:12:23;97940.21;;;1.29;89.34
58662;BME280;44432;49.786;22.760;2023-01-19T13:15:28;97943.30;;;1.27;89.29
58662;BME280;44432;49.786;22.760;2023-01-19T13:18:03;97930.40;;;1.27;89.33
58662;BME280;44432;49.786;22.760;2023-01-19T13:20:45;97936.10;;;1.28;89.54
58662;BME280;44432;49.786;22.760;2023-01-19T13:23:20;97937.85;;;1.28;89.44
58662;BME280;44432;49.786;22.760;2023-01-19T13:26:11;97938.17;;;1.24;89.16
58662;BME280;44432;49.786;22.760;2023-01-19T13:28:44;97940.64;;;1.22;89.29
58662;BME280;44432;49.786;22.760;2023-01-19T13:31:17;97943.27;;;1.22;89.43
58662;BME280;44432;49.786;22.760;2023-01-19T13:33:51;97942.46;;;1.20;89.33
58662;BME280;44432;49.786;22.760;2023-01-19T13:36:29;97945.02;;;1.19;89.48
58662;BME280;44432;49.786;22.760;2023-01-19T13:39:02;97952.23;;;1.18;89.27